Time;durP1;ratioP1;P1;durP2;ratioP2;P2;SDS_P1;SDS_P2;PMS_P1;PMS_P2;Temp;Humidity;BMP_temperature;BMP_pressure;BME280_temperature;BME280_humidity;BME280_pressure;Samples;Min_cycle;Max_cycle;Signal;HPM_P1;HPM_P2
2024/02/01 00:01:29;;;;;;;42.42;7.72;;;;;;;7.31;100.00;102530.94;5076743;28;20032;-80
2024/02/01 00:03:54;;;;;;;36.60;7.07;;;;;;;7.33;100.00;102532.59;5095413;28;20047;-81
2024/02/01 00:06:20;;;;;;;31.58;6.90;;;;;;;7.33;100.00;102531.69;5094570;28;20409;-80
2024/02/01 00:08:48;;;;;;;34.70;6.28;;;;;;;7.34;100.00;102541.38;5060986;28;20032;-81
2024/02/01 00:11:13;;;;;;;32.78;6.85;;;;;;;7.33;100.00;102527.28;5077438;28;20031;-82
2024/02/01 00:13:39;;;;;;;37.75;7.68;;;;;;;7.36;100.00;102537.72;5094760;28;20028;-81
2024/02/01 00:16:04;;;;;;;37.13;6.28;;;;;;;7.37;100.00;102550.00;5094761;28;20055;-81
2024/02/01 00:18:30;;;;;;;39.60;7.15;;;;;;;7.37;100.00;102539.41;5095340;28;20035;-81
2024/02/01 00:20:55;;;;;;;39.50;6.80;;;;;;;7.37;100.00;102526.16;5076360;28;20038;-83
2024/02/01 00:23:20;;;;;;;29.75;5.95;;;;;;;7.40;100.00;102541.94;5094007;28;20067;-82
2024/02/01 00:25:46;;;;;;;37.55;6.90;;;;;;;7.45;100.00;102544.34;5094129;28;20048;-80
2024/02/01 00:28:11;;;;;;;48.25;7.72;;;;;;;7.44;100.00;102539.13;5094288;28;20073;-80
2024/02/01 00:30:37;;;;;;;37.47;7.00;;;;;;;7.41;100.00;102514.50;5093796;28;20504;-81
2024/02/01 00:33:03;;;;;;;35.30;7.65;;;;;;;7.45;100.00;102535.53;5075481;28;20039;-81
2024/02/01 00:35:28;;;;;;;36.65;8.05;;;;;;;7.41;100.00;102534.84;5059103;28;20078;-79
2024/02/01 00:37:54;;;;;;;30.98;6.47;;;;;;;7.38;100.00;102540.28;5094098;28;20035;-82
2024/02/01 00:40:19;;;;;;;38.55;7.00;;;;;;;7.40;100.00;102538.41;5093969;28;20023;-81
2024/02/01 00:42:44;;;;;;;30.65;6.95;;;;;;;7.41;100.00;102538.34;5093856;28;20081;-81
2024/02/01 00:45:10;;;;;;;32.78;7.95;;;;;;;7.40;100.00;102530.47;5093835;28;20429;-81
2024/02/01 00:47:35;;;;;;;31.27;7.00;;;;;;;7.39;100.00;102520.84;5075334;28;20393;-80
2024/02/01 00:50:00;;;;;;;34.75;6.53;;;;;;;7.36;100.00;102532.44;5093885;28;20025;-83
2024/02/01 00:52:26;;;;;;;38.38;8.20;;;;;;;7.36;100.00;102524.47;5093721;28;20429;-81
2024/02/01 00:54:51;;;;;;;37.78;8.10;;;;;;;7.35;100.00;102525.41;5075699;28;20361;-82
2024/02/01 00:57:17;;;;;;;38.72;8.82;;;;;;;7.33;100.00;102534.34;5093369;28;20329;-81
2024/02/01 00:59:42;;;;;;;39.90;8.07;;;;;;;7.33;100.00;102540.53;5075796;28;20040;-82
2024/02/01 01:02:08;;;;;;;49.08;8.90;;;;;;;7.31;100.00;102545.03;5093732;28;20032;-82
2024/02/01 01:04:33;;;;;;;43.55;8.10;;;;;;;7.32;100.00;102537.97;5058284;28;20443;-82
2024/02/01 01:06:58;;;;;;;39.40;8.48;;;;;;;7.31;100.00;102545.03;5058856;28;20043;-81
2024/02/01 01:09:24;;;;;;;43.55;7.72;;;;;;;7.27;100.00;102546.13;5092688;28;20391;-82
2024/02/01 01:11:49;;;;;;;47.58;8.63;;;;;;;7.32;100.00;102545.91;5074473;28;20090;-82
2024/02/01 01:14:14;;;;;;;38.15;7.63;;;;;;;7.35;100.00;102551.03;5093194;28;20058;-82
2024/02/01 01:16:40;;;;;;;48.40;8.32;;;;;;;7.35;100.00;102553.69;5093821;28;20032;-82
2024/02/01 01:19:05;;;;;;;35.55;7.70;;;;;;;7.35;100.00;102575.72;5092905;28;20036;-81
2024/02/01 01:21:30;;;;;;;39.20;7.05;;;;;;;7.35;100.00;102572.22;5075060;28;20434;-81
2024/02/01 01:23:56;;;;;;;44.67;8.80;;;;;;;7.31;100.00;102570.66;5093172;28;20082;-81
2024/02/01 01:26:25;;;;;;;30.17;7.40;;;;;;;7.31;100.00;102576.78;5093148;28;20049;-80
2024/02/01 01:28:50;;;;;;;36.08;8.18;;;;;;;7.29;100.00;102577.81;5092982;28;20482;-81
2024/02/01 01:31:16;;;;;;;44.25;7.22;;;;;;;7.26;100.00;102589.41;5092588;28;20106;-81
2024/02/01 01:33:41;;;;;;;41.58;6.93;;;;;;;7.24;100.00;102586.84;5074570;28;20333;-81
2024/02/01 01:36:06;;;;;;;34.22;6.90;;;;;;;7.22;100.00;102582.56;5093148;28;20034;-81
2024/02/01 01:38:32;;;;;;;37.30;7.50;;;;;;;7.23;100.00;102584.28;5092670;28;20032;-82
2024/02/01 01:40:57;;;;;;;45.65;7.38;;;;;;;7.22;100.00;102583.41;5074598;28;20085;-81
2024/02/01 01:43:24;;;;;;;52.75;7.72;;;;;;;7.23;100.00;102594.88;5074582;28;20047;-82
2024/02/01 01:46:01;;;;;;;42.35;7.60;;;;;;;7.23;100.00;102592.22;5092806;28;20040;-83
2024/02/01 01:48:27;;;;;;;41.63;7.45;;;;;;;7.21;100.00;102602.00;5075059;28;20028;-82
2024/02/01 01:50:53;;;;;;;40.00;7.07;;;;;;;7.23;100.00;102613.41;5092706;28;20048;-83
2024/02/01 01:53:19;;;;;;;34.47;7.13;;;;;;;7.24;100.00;102604.53;5073841;28;20052;-83
2024/02/01 01:55:45;;;;;;;49.10;7.70;;;;;;;7.26;100.00;102615.06;5093122;28;20457;-81
2024/02/01 01:58:10;;;;;;;44.78;7.40;;;;;;;7.25;100.00;102608.88;5074459;28;20042;-84
2024/02/01 02:00:36;;;;;;;37.65;6.20;;;;;;;7.26;100.00;102615.91;5074335;28;20477;-83
2024/02/01 02:03:04;;;;;;;35.25;7.05;;;;;;;7.24;100.00;102629.22;5091970;28;20048;-84
2024/02/01 02:05:30;;;;;;;40.70;7.50;;;;;;;7.26;100.00;102625.63;5058483;28;20119;-81
2024/02/01 02:07:55;;;;;;;43.40;6.68;;;;;;;7.26;100.00;102625.63;5074444;28;20463;-83
2024/02/01 02:10:21;;;;;;;40.13;6.57;;;;;;;7.21;100.00;102631.13;5092244;28;20032;-83
2024/02/01 02:12:46;;;;;;;39.80;6.28;;;;;;;7.16;100.00;102631.34;5074142;28;20028;-83
2024/02/01 02:15:13;;;;;;;41.22;7.50;;;;;;;7.10;100.00;102634.28;5074590;28;20032;-83
2024/02/01 02:17:39;;;;;;;40.03;6.40;;;;;;;7.02;100.00;102649.69;5074248;28;20024;-82
2024/02/01 02:20:18;;;;;;;25.52;5.57;;;;;;;6.93;100.00;102650.13;5092592;28;20294;-82
2024/02/01 02:22:51;;;;;;;28.60;4.80;;;;;;;6.79;100.00;102642.81;5092650;28;20034;-82
2024/02/01 02:25:17;;;;;;;34.33;4.40;;;;;;;6.58;100.00;102649.94;5075129;28;20464;-82
2024/02/01 02:27:43;;;;;;;25.65;4.18;;;;;;;6.39;100.00;102647.22;5074200;28;20044;-82
2024/02/01 02:30:11;;;;;;;35.92;4.28;;;;;;;6.20;100.00;102655.97;5073770;28;20428;-82
2024/02/01 02:32:38;;;;;;;33.90;4.57;;;;;;;6.05;100.00;102654.84;5092102;28;20111;-81
2024/02/01 02:35:04;;;;;;;29.40;4.80;;;;;;;5.89;100.00;102659.88;5091986;28;20040;-81
2024/02/01 02:37:29;;;;;;;34.38;4.32;;;;;;;5.75;100.00;102665.75;5091971;28;20345;-81
2024/02/01 02:39:55;;;;;;;36.83;5.03;;;;;;;5.64;100.00;102674.13;5092284;28;20119;-81
2024/02/01 02:42:20;;;;;;;25.23;4.00;;;;;;;5.59;100.00;102678.69;5092535;28;20051;-81
2024/02/01 02:44:45;;;;;;;34.90;4.22;;;;;;;5.50;100.00;102683.50;5073942;28;20039;-81
2024/02/01 02:47:11;;;;;;;32.67;4.53;;;;;;;5.42;100.00;102689.94;5095778;28;20544;-81
2024/02/01 02:49:36;;;;;;;31.38;3.92;;;;;;;5.29;100.00;102693.97;5077336;28;20047;-81
2024/02/01 02:52:02;;;;;;;45.72;4.03;;;;;;;5.15;100.00;102691.88;5077473;28;20060;-81
2024/02/01 02:54:28;;;;;;;30.50;3.67;;;;;;;5.04;100.00;102691.41;5077964;28;20036;-81
2024/02/01 02:56:53;;;;;;;42.42;4.70;;;;;;;5.01;100.00;102696.81;5095574;28;20491;-81
2024/02/01 02:59:19;;;;;;;28.25;3.63;;;;;;;5.02;100.00;102699.38;5095451;28;20353;-81
2024/02/01 03:01:47;;;;;;;24.92;4.75;;;;;;;5.01;100.00;102708.22;5095057;28;20541;-81
2024/02/01 03:04:13;;;;;;;36.90;3.88;;;;;;;5.03;100.00;102718.72;5095723;28;20036;-80
2024/02/01 03:06:39;;;;;;;30.23;3.95;;;;;;;5.02;100.00;102715.22;5096396;28;20539;-80
2024/02/01 03:09:06;;;;;;;39.75;3.88;;;;;;;5.01;100.00;102724.03;5096234;28;20032;-80
2024/02/01 03:11:32;;;;;;;35.47;4.35;;;;;;;5.00;100.00;102724.97;5077502;28;20032;-80
2024/02/01 03:13:57;;;;;;;45.42;5.22;;;;;;;4.97;100.00;102732.13;5096904;28;20090;-81
2024/02/01 03:16:22;;;;;;;38.63;3.60;;;;;;;4.91;100.00;102728.81;5098030;28;20063;-80
2024/02/01 03:18:49;;;;;;;31.05;3.53;;;;;;;4.82;100.00;102731.78;5096249;28;20032;-80
2024/02/01 03:21:21;;;;;;;43.95;3.63;;;;;;;4.66;100.00;102741.13;5096462;28;20044;-79
2024/02/01 03:23:47;;;;;;;29.35;3.80;;;;;;;4.46;100.00;102742.69;5096742;28;20028;-79
2024/02/01 03:26:17;;;;;;;29.45;3.72;;;;;;;4.31;100.00;102740.59;5095486;28;20204;-80
2024/02/01 03:28:58;;;;;;;26.80;3.55;;;;;;;4.18;100.00;102746.28;5095492;28;20028;-79
2024/02/01 03:31:33;;;;;;;;;;;;;;;4.05;100.00;102748.44;5065566;28;20156;-80
2024/02/01 03:34:05;;;;;;;24.48;3.20;;;;;;;3.88;100.00;102749.00;5094966;28;19982;-79
2024/02/01 03:36:34;;;;;;;28.45;3.72;;;;;;;3.75;100.00;102752.94;5076791;28;20175;-80
2024/02/01 03:39:00;;;;;;;25.40;3.97;;;;;;;3.65;100.00;102751.50;5095464;28;20333;-79
2024/02/01 03:41:26;;;;;;;22.92;3.15;;;;;;;3.59;100.00;102762.22;5095348;28;20039;-80
2024/02/01 03:43:51;;;;;;;28.30;3.35;;;;;;;3.47;100.00;102769.56;5076777;28;20076;-79
2024/02/01 03:46:18;;;;;;;32.88;3.67;;;;;;;3.34;100.00;102774.34;5095389;28;20452;-79
2024/02/01 03:48:43;;;;;;;37.55;4.10;;;;;;;3.22;100.00;102774.66;5076492;28;20483;-79
2024/02/01 03:51:10;;;;;;;25.95;3.75;;;;;;;3.10;100.00;102775.88;5095222;28;20032;-80
2024/02/01 03:53:36;;;;;;;25.65;3.75;;;;;;;3.03;100.00;102776.97;5076971;28;20036;-79
2024/02/01 03:56:03;;;;;;;35.97;4.03;;;;;;;3.01;100.00;102776.13;5076871;28;20460;-79
2024/02/01 03:58:28;;;;;;;32.08;3.70;;;;;;;2.97;100.00;102787.63;5094094;28;20068;-80
2024/02/01 04:00:59;;;;;;;30.60;3.78;;;;;;;2.91;100.00;102800.97;5094184;28;20024;-79
2024/02/01 04:03:24;;;;;;;34.70;3.63;;;;;;;2.88;100.00;102803.69;5094834;28;20112;-81
2024/02/01 04:05:50;;;;;;;29.17;3.20;;;;;;;2.85;100.00;102801.97;5076208;28;20464;-79
2024/02/01 04:08:19;;;;;;;34.05;4.03;;;;;;;2.80;100.00;102807.38;5094104;28;20028;-78
2024/02/01 04:10:48;;;;;;;23.33;3.03;;;;;;;2.76;100.00;102799.59;5094033;28;20157;-79
2024/02/01 04:13:13;;;;;;;31.27;3.58;;;;;;;2.72;100.00;102790.94;5093845;28;20032;-79
2024/02/01 04:15:39;;;;;;;23.27;3.47;;;;;;;2.71;100.00;102804.13;5093908;28;20123;-79
2024/02/01 04:18:07;;;;;;;27.38;3.65;;;;;;;2.65;100.00;102829.66;5094140;28;20059;-78
2024/02/01 04:20:33;;;;;;;25.75;3.13;;;;;;;2.56;100.00;102832.53;5094108;28;20422;-79
2024/02/01 04:22:58;;;;;;;27.67;3.85;;;;;;;2.51;100.00;102839.66;5093904;28;20050;-79
2024/02/01 04:25:24;;;;;;;16.67;2.50;;;;;;;2.49;100.00;102840.59;5093592;28;20504;-79
2024/02/01 04:27:50;;;;;;;37.25;3.55;;;;;;;2.50;100.00;102848.44;5094195;28;20056;-78
2024/02/01 04:30:20;;;;;;;34.20;3.70;;;;;;;2.50;100.00;102844.97;5093795;28;20040;-78
2024/02/01 04:32:46;;;;;;;26.70;3.97;;;;;;;2.54;100.00;102862.38;5093542;28;20036;-79
2024/02/01 04:35:16;;;;;;;25.42;2.72;;;;;;;2.57;100.00;102862.31;5093996;28;20135;-79
2024/02/01 04:37:42;;;;;;;36.58;3.08;;;;;;;2.60;100.00;102856.97;5093412;28;20545;-80
2024/02/01 04:40:08;;;;;;;29.08;3.65;;;;;;;2.63;100.00;102857.75;5093718;28;20032;-79
2024/02/01 04:42:35;;;;;;;27.25;3.33;;;;;;;2.63;100.00;102859.53;5075651;28;20032;-80
2024/02/01 04:45:04;;;;;;;29.88;4.72;;;;;;;2.60;100.00;102857.84;5093076;28;20036;-80
2024/02/01 04:47:34;;;;;;;30.02;3.92;;;;;;;2.64;100.00;102861.25;5093556;28;20054;-81
2024/02/01 04:50:00;;;;;;;25.58;3.40;;;;;;;2.75;100.00;102863.63;5093462;28;20028;-80
2024/02/01 04:52:26;;;;;;;25.10;3.88;;;;;;;2.83;100.00;102865.13;5093766;28;20058;-80
2024/02/01 04:54:52;;;;;;;41.83;3.70;;;;;;;2.82;100.00;102871.31;5093998;28;20441;-79
2024/02/01 04:57:17;;;;;;;23.35;2.90;;;;;;;2.73;100.00;102863.66;5093674;28;20114;-80
2024/02/01 04:59:46;;;;;;;31.58;3.53;;;;;;;2.68;100.00;102868.16;5074695;28;20481;-80
2024/02/01 05:02:14;;;;;;;22.42;2.50;;;;;;;2.68;100.00;102868.16;5074837;28;20027;-80
2024/02/01 05:04:39;;;;;;;33.75;3.53;;;;;;;2.71;100.00;102864.59;5092897;28;20361;-80
2024/02/01 05:07:05;;;;;;;29.90;4.60;;;;;;;2.72;100.00;102872.44;5093591;28;20035;-80
2024/02/01 05:09:34;;;;;;;36.50;3.40;;;;;;;2.71;100.00;102868.06;5092148;28;20392;-80
2024/02/01 05:12:00;;;;;;;18.27;3.03;;;;;;;2.76;100.00;102881.09;5093392;28;20111;-79
2024/02/01 05:14:25;;;;;;;28.58;3.75;;;;;;;2.79;100.00;102886.28;5092740;28;20032;-80
2024/02/01 05:16:51;;;;;;;24.25;3.15;;;;;;;2.84;100.00;102894.94;5093552;28;20394;-80
2024/02/01 05:19:17;;;;;;;28.20;3.85;;;;;;;2.94;100.00;102899.06;5074431;28;20025;-80
2024/02/01 05:21:43;;;;;;;24.33;3.15;;;;;;;3.02;100.00;102898.88;5092635;28;20077;-80
2024/02/01 05:24:13;;;;;;;30.80;3.38;;;;;;;2.99;100.00;102899.78;5092863;28;20031;-80
2024/02/01 05:26:43;;;;;;;16.10;2.67;;;;;;;2.93;100.00;102902.59;5092670;28;20040;-80
2024/02/01 05:29:09;;;;;;;;;;;;;;;2.96;100.00;102906.91;5092836;28;20457;-80
2024/02/01 05:31:39;;;;;;;31.58;4.07;;;;;;;2.88;100.00;102912.38;5092735;28;19916;-82
2024/02/01 05:34:05;;;;;;;29.88;3.55;;;;;;;2.80;100.00;102911.69;5058590;28;20039;-80
2024/02/01 05:36:32;;;;;;;33.45;3.55;;;;;;;2.75;100.00;102919.69;5092568;28;20099;-79
2024/02/01 05:38:58;;;;;;;21.17;3.75;;;;;;;2.71;100.00;102917.16;5092908;28;20119;-80
2024/02/01 05:41:23;;;;;;;23.10;3.55;;;;;;;2.64;100.00;102927.84;5074232;28;20551;-80
2024/02/01 05:43:49;;;;;;;24.08;3.47;;;;;;;2.61;100.00;102934.91;5092372;28;20113;-79
2024/02/01 05:46:14;;;;;;;27.30;4.00;;;;;;;2.62;100.00;102928.75;5092484;28;20466;-79
2024/02/01 05:48:43;;;;;;;31.15;4.05;;;;;;;2.63;100.00;102943.66;5092449;28;20479;-80
2024/02/01 05:51:09;;;;;;;29.52;3.80;;;;;;;2.56;100.00;102942.91;5092104;28;20028;-80
2024/02/01 05:53:35;;;;;;;30.15;3.65;;;;;;;2.53;100.00;102945.59;5074371;28;20486;-80
2024/02/01 05:56:00;;;;;;;28.90;3.53;;;;;;;2.56;100.00;102942.06;5093087;28;20036;-80
2024/02/01 05:58:28;;;;;;;35.95;4.13;;;;;;;2.63;100.00;102938.38;5092410;28;20448;-79
2024/02/01 06:00:54;;;;;;;33.90;3.85;;;;;;;2.65;100.00;102944.47;5092031;28;20069;-79
2024/02/01 06:03:19;;;;;;;28.25;3.47;;;;;;;2.58;100.00;102938.50;5074027;28;20114;-80
2024/02/01 06:05:49;;;;;;;23.17;3.55;;;;;;;2.57;100.00;102943.78;5074058;28;20386;-79
2024/02/01 06:08:18;;;;;;;28.13;4.00;;;;;;;2.60;100.00;102946.34;5091910;28;20187;-79
2024/02/01 06:10:44;;;;;;;23.60;3.88;;;;;;;2.56;100.00;102948.16;5091985;28;20074;-79
2024/02/01 06:13:11;;;;;;;21.92;3.60;;;;;;;2.49;100.00;102961.50;5073809;28;20128;-79
2024/02/01 06:15:36;;;;;;;29.88;3.40;;;;;;;2.39;100.00;102956.44;5073851;28;20490;-80
2024/02/01 06:18:02;;;;;;;31.23;3.63;;;;;;;2.31;100.00;102963.63;5091975;28;20036;-80
2024/02/01 06:20:28;;;;;;;37.10;4.40;;;;;;;2.41;100.00;102972.19;5093317;28;20039;-79
2024/02/01 06:22:53;;;;;;;32.88;3.50;;;;;;;2.47;100.00;102975.50;5096392;28;20470;-79
2024/02/01 06:25:18;;;;;;;23.10;3.67;;;;;;;2.55;100.00;102977.97;5096179;28;20409;-79
2024/02/01 06:27:44;;;;;;;30.50;3.30;;;;;;;2.58;100.00;102983.19;5097022;28;20048;-80
2024/02/01 06:30:10;;;;;;;34.40;3.88;;;;;;;2.64;100.00;102983.03;5096723;28;20052;-80
2024/02/01 06:32:36;;;;;;;23.45;3.33;;;;;;;2.72;100.00;102980.22;5096410;28;20456;-82
2024/02/01 06:35:13;;;;;;;25.17;3.80;;;;;;;2.78;100.00;102989.75;5096689;28;20068;-82
2024/02/01 06:37:42;;;;;;;37.40;4.22;;;;;;;2.84;100.00;102989.59;5096877;28;20550;-83
2024/02/01 06:40:28;;;;;;;28.15;3.53;;;;;;;2.94;100.00;103003.38;5096904;28;20464;-83
2024/02/01 06:43:08;;;;;;;31.98;3.95;;;;;;;2.91;100.00;103006.06;5096789;28;20060;-82
2024/02/01 06:45:44;;;;;;;36.17;3.88;;;;;;;2.91;100.00;103004.34;5097112;28;20074;-83
2024/02/01 06:48:13;;;;;;;27.35;3.72;;;;;;;2.99;100.00;103014.66;5095768;28;20062;-82
2024/02/01 06:50:54;;;;;;;25.80;4.32;;;;;;;3.06;100.00;103010.09;5096097;28;20062;-81
2024/02/01 06:53:33;;;;;;;22.63;4.35;;;;;;;3.06;100.00;103020.63;5095883;28;20031;-80
2024/02/01 06:56:00;;;;;;;24.90;4.22;;;;;;;3.09;100.00;103026.69;5096355;28;20031;-82
2024/02/01 07:01:33;;;;;;;26.90;3.92;;;;;;;3.10;100.00;103038.94;5096268;28;20123;-80
2024/02/01 07:04:13;;;;;;;19.10;2.92;;;;;;;3.05;100.00;103040.81;5095840;28;20452;-78
2024/02/01 07:06:53;;;;;;;20.13;2.60;;;;;;;3.08;100.00;103040.75;5095676;28;20031;-78
2024/02/01 07:09:27;;;;;;;26.75;5.45;;;;;;;3.16;100.00;103048.44;5095083;28;20498;-78
2024/02/01 07:12:09;;;;;;;27.83;3.60;;;;;;;3.15;100.00;103044.97;5079195;28;20032;-78
2024/02/01 07:14:39;;;;;;;;;;;;;;;3.14;100.00;103039.75;5077918;28;20451;-78
2024/02/01 07:19:58;;;;;;;30.73;3.35;;;;;;;3.12;100.00;103052.03;5095614;28;20046;-80
2024/02/01 07:22:39;;;;;;;24.58;3.80;;;;;;;3.15;100.00;103058.13;5095564;28;20138;-80
2024/02/01 07:25:33;;;;;;;;;;;;;;;3.21;100.00;103051.84;5095748;28;20047;-80
2024/02/01 07:58:08;;;;;;;31.33;3.72;;;;;;;3.67;100.00;103116.50;5095994;28;20051;-79
2024/02/01 08:00:34;;;;;;;33.33;5.75;;;;;;;3.70;100.00;103112.91;5076666;28;20050;-79
2024/02/01 08:03:03;;;;;;;33.97;3.63;;;;;;;3.83;100.00;103130.13;5095430;28;20024;-80
2024/02/01 08:08:12;;;;;;;37.55;4.32;;;;;;;4.00;100.00;103137.63;5094740;28;20051;-80
2024/02/01 08:10:38;;;;;;;24.98;4.00;;;;;;;4.07;100.00;103140.94;5075909;28;20035;-79
2024/02/01 08:13:07;;;;;;;38.05;4.88;;;;;;;4.18;100.00;103138.00;5076054;28;20038;-80
2024/02/01 08:15:41;;;;;;;31.20;5.15;;;;;;;4.26;100.00;103132.56;5093978;28;20028;-80
2024/02/01 08:18:10;;;;;;;32.88;3.90;;;;;;;4.33;100.00;103129.72;5094705;28;20040;-80
2024/02/01 08:20:39;;;;;;;32.33;4.05;;;;;;;4.41;100.00;103140.03;5076099;28;20430;-79
2024/02/01 08:23:05;;;;;;;27.55;4.70;;;;;;;4.43;100.00;103143.50;5076342;28;20059;-76
2024/02/01 08:25:31;;;;;;;30.63;4.63;;;;;;;4.48;100.00;103146.88;5076080;28;20032;-77
2024/02/01 08:27:58;;;;;;;33.42;4.53;;;;;;;4.55;100.00;103145.81;5094296;28;20425;-78
2024/02/01 08:30:27;;;;;;;30.45;4.55;;;;;;;4.64;100.00;103143.78;5093910;28;20415;-78
2024/02/01 08:32:53;;;;;;;33.67;4.50;;;;;;;4.71;100.00;103154.13;5076506;28;20028;-77
2024/02/01 08:35:19;;;;;;;35.92;4.97;;;;;;;4.77;100.00;103153.94;5075943;28;20032;-77
2024/02/01 08:37:44;;;;;;;24.17;3.78;;;;;;;4.80;100.00;103168.81;5094624;28;20039;-77
2024/02/01 08:40:17;;;;;;;36.40;3.97;;;;;;;4.85;100.00;103176.59;5094494;28;20127;-79
2024/02/01 08:42:43;;;;;;;25.00;4.10;;;;;;;4.92;100.00;103178.16;5094677;28;20034;-76
2024/02/01 08:45:13;;;;;;;24.73;3.75;;;;;;;4.99;100.00;103178.84;5094865;28;20132;-77
2024/02/01 08:47:40;;;;;;;30.67;4.22;;;;;;;5.07;100.00;103190.88;5094069;28;20036;-76
2024/02/01 08:50:06;;;;;;;26.95;3.45;;;;;;;5.18;100.00;103190.59;5076120;28;20115;-80
2024/02/01 08:52:45;;;;;;;22.30;3.38;;;;;;;5.30;100.00;103195.47;5076135;28;20116;-77
2024/02/01 08:55:17;;;;;;;26.70;4.47;;;;;;;5.41;100.00;103199.56;5075749;28;20024;-78
2024/02/01 08:57:44;;;;;;;33.05;4.55;;;;;;;5.43;100.00;103190.69;5094078;28;20120;-77
2024/02/01 09:00:32;;;;;;;29.33;4.13;;;;;;;5.43;100.00;103190.69;5094174;28;20032;-77
2024/02/01 09:03:05;;;;;;;24.30;4.05;;;;;;;5.42;100.00;103190.72;5094049;28;20036;-78
2024/02/01 09:05:36;;;;;;;27.27;4.95;;;;;;;5.41;100.00;103195.13;5093620;28;20513;-80
2024/02/01 09:08:06;;;;;;;48.17;5.37;;;;;;;5.48;100.00;103204.59;5094424;28;20036;-82
2024/02/01 09:10:33;;;;;;;28.38;3.83;;;;;;;5.51;100.00;103200.13;5093713;28;20063;-80
2024/02/01 09:12:59;;;;;;;26.90;4.05;;;;;;;5.60;100.00;103211.28;5093196;28;20404;-78
2024/02/01 09:15:25;;;;;;;31.40;4.32;;;;;;;5.74;100.00;103216.09;5093059;28;20038;-78
2024/02/01 09:17:51;;;;;;;29.60;4.45;;;;;;;5.84;100.00;103219.34;5075886;28;20405;-78
2024/02/01 09:20:20;;;;;;;27.92;3.92;;;;;;;5.91;100.00;103218.22;5075142;28;20088;-77
2024/02/01 09:22:48;;;;;;;32.53;4.65;;;;;;;5.95;100.00;103234.81;5093172;28;20443;-78
2024/02/01 09:25:15;;;;;;;33.58;5.45;;;;;;;5.97;100.00;103235.66;5093322;28;20039;-77
2024/02/01 09:27:44;;;;;;;37.90;4.78;;;;;;;5.96;100.00;103232.13;5074931;28;20074;-79
2024/02/01 09:30:11;;;;;;;32.65;4.60;;;;;;;6.02;100.00;103239.03;5093303;28;20408;-79
2024/02/01 09:32:38;;;;;;;26.75;3.80;;;;;;;6.04;100.00;103242.47;5093054;28;20092;-80
2024/02/01 09:35:04;;;;;;;30.60;4.95;;;;;;;6.12;100.00;103236.94;5093454;28;20032;-78
2024/02/01 09:37:29;;;;;;;23.98;3.85;;;;;;;6.26;100.00;103232.06;5092932;28;20036;-78
2024/02/01 09:40:00;;;;;;;35.17;4.78;;;;;;;6.24;100.00;103235.66;5093175;28;20035;-79
2024/02/01 09:42:26;;;;;;;25.98;4.28;;;;;;;6.27;100.00;103239.09;5093408;28;20112;-80
2024/02/01 09:44:56;;;;;;;24.67;3.63;;;;;;;6.43;100.00;103241.19;5093074;28;20047;-79
2024/02/01 09:47:24;;;;;;;38.97;5.07;;;;;;;6.56;100.00;103252.22;5092603;28;20385;-78
2024/02/01 09:49:55;;;;;;;34.10;4.63;;;;;;;6.59;100.00;103249.47;5093045;28;20028;-78
2024/02/01 09:52:22;;;;;;;30.40;5.18;;;;;;;6.58;100.00;103253.88;5093400;28;20032;-79
2024/02/01 09:54:48;;;;;;;43.00;4.65;;;;;;;6.69;100.00;103253.50;5074022;28;20480;-79
2024/02/01 09:57:17;;;;;;;31.75;4.82;;;;;;;6.71;100.00;103257.81;5093414;28;20111;-79
2024/02/01 09:59:43;;;;;;;26.00;4.30;;;;;;;6.81;100.00;103268.09;5093073;28;20028;-81
2024/02/01 10:02:12;;;;;;;39.00;4.57;;;;;;;6.81;100.00;103266.28;5075075;28;20139;-78
2024/02/01 10:04:39;;;;;;;32.08;4.20;;;;;;;6.78;100.00;103262.91;5093395;28;20413;-78
2024/02/01 10:07:05;;;;;;;24.42;4.13;;;;;;;6.81;100.00;103255.72;5092608;28;20098;-76
2024/02/01 10:09:30;;;;;;;22.02;3.80;;;;;;;6.92;100.00;103265.91;5092678;28;20427;-76
2024/02/01 10:11:56;;;;;;;20.85;5.22;;;;;;;7.00;100.00;103271.78;5092755;28;20118;-79
2024/02/01 10:14:34;;;;;;;31.08;4.28;;;;;;;7.00;100.00;103269.16;5074592;28;20109;-76
2024/02/01 10:17:06;;;;;;;30.67;4.47;;;;;;;7.02;100.00;103274.38;5093199;28;20241;-77
2024/02/01 10:19:34;;;;;;;24.08;3.83;;;;;;;6.97;100.00;103266.59;5092889;28;20067;-77
2024/02/01 10:22:08;;;;;;;34.85;5.88;;;;;;;7.16;100.00;103269.41;5092254;28;20414;-77
2024/02/01 10:24:44;;;;;;;34.67;4.35;;;;;;;7.26;100.00;103267.31;5093036;28;20089;-79
2024/02/01 10:27:12;;;;;;;31.60;5.20;;;;;;;7.40;100.00;103277.34;5076640;28;20075;-78
2024/02/01 10:29:40;;;;;;;24.15;4.40;;;;;;;7.63;100.00;103278.25;5092497;28;20032;-77
2024/02/01 10:32:12;;;;;;;27.55;3.60;;;;;;;7.78;100.00;103275.00;5075035;28;20036;-77
2024/02/01 10:34:44;;;;;;;25.90;4.53;;;;;;;8.37;100.00;103273.44;5092849;28;20032;-76
2024/02/01 10:37:13;;;;;;;27.83;4.90;;;;;;;8.42;100.00;103271.47;5093203;28;20050;-77
2024/02/01 10:39:43;;;;;;;36.35;5.03;;;;;;;8.84;100.00;103280.34;5092258;28;20024;-77
2024/02/01 10:42:12;;;;;;;22.00;4.53;;;;;;;9.67;100.00;103276.50;5092879;28;20028;-78
2024/02/01 10:44:41;;;;;;;22.88;4.00;;;;;;;10.15;100.00;103274.19;5092248;28;20093;-77
2024/02/01 10:47:13;;;;;;;24.55;4.32;;;;;;;10.59;100.00;103275.53;5092752;28;20032;-78
2024/02/01 10:49:43;;;;;;;24.02;4.50;;;;;;;10.90;100.00;103282.78;5092719;28;20043;-77
2024/02/01 10:52:11;;;;;;;24.77;3.67;;;;;;;10.53;100.00;103276.72;5092241;28;20028;-78
2024/02/01 10:54:37;;;;;;;26.40;4.25;;;;;;;10.69;100.00;103275.91;5092543;28;20032;-81
2024/02/01 10:57:06;;;;;;;21.17;4.40;;;;;;;10.75;100.00;103280.94;5057592;28;20085;-83
2024/02/01 10:59:32;;;;;;;26.80;3.80;;;;;;;10.86;100.00;103281.22;5057640;28;20040;-80
2024/02/01 11:01:59;;;;;;;21.63;4.20;;;;;;;10.96;100.00;103281.59;5092369;28;20118;-79
2024/02/01 11:04:33;;;;;;;18.88;3.40;;;;;;;10.34;100.00;103287.44;5092346;28;20036;-81
2024/02/01 11:07:00;;;;;;;20.13;4.00;;;;;;;10.34;100.00;103294.56;5094605;28;20028;-81
2024/02/01 11:09:28;;;;;;;33.50;4.30;;;;;;;10.41;100.00;103295.97;5095832;28;20071;-80
2024/02/01 11:11:55;;;;;;;30.30;4.68;;;;;;;10.53;100.00;103295.34;5095891;28;20036;-79
2024/02/01 11:14:23;;;;;;;24.42;3.83;;;;;;;10.25;100.00;103295.84;5078485;28;20082;-79
2024/02/01 11:16:57;;;;;;;19.80;3.55;;;;;;;10.37;100.00;103289.09;5096358;28;20060;-80
2024/02/01 11:19:23;;;;;;;24.15;3.85;;;;;;;10.28;100.00;103289.53;5095720;28;20028;-80
2024/02/01 11:21:55;;;;;;;28.27;3.70;;;;;;;9.95;100.00;103293.78;5095466;28;20451;-81
2024/02/01 11:24:26;;;;;;;23.35;3.67;;;;;;;9.42;100.00;103289.22;5095747;28;20039;-80
2024/02/01 11:26:57;;;;;;;;;;;;;;;9.14;100.00;103295.81;5096052;28;20050;-80
2024/02/01 11:29:24;;;;;;;24.40;3.90;;;;;;;8.89;100.00;103293.41;5095878;28;19966;-80
2024/02/01 11:32:00;;;;;;;26.67;4.05;;;;;;;8.41;100.00;103292.78;5077047;28;20090;-80
2024/02/01 11:34:26;;;;;;;25.15;4.07;;;;;;;8.40;100.00;103289.25;5095173;28;20032;-79
2024/02/01 11:36:53;;;;;;;25.85;4.07;;;;;;;8.49;100.00;103285.38;5095316;28;20077;-80
2024/02/01 11:39:19;;;;;;;29.65;3.78;;;;;;;8.48;100.00;103288.97;5077172;28;20376;-80
2024/02/01 11:41:48;;;;;;;29.48;4.18;;;;;;;8.23;100.00;103297.91;5095722;28;20032;-80
2024/02/01 11:44:14;;;;;;;24.63;3.67;;;;;;;8.18;100.00;103296.38;5095500;28;20032;-81
2024/02/01 11:46:45;;;;;;;28.02;3.95;;;;;;;8.09;100.00;103298.50;5060443;28;20036;-79
2024/02/01 11:49:18;;;;;;;24.92;3.67;;;;;;;7.97;100.00;103295.47;5078324;28;20042;-80
2024/02/01 11:52:13;;;;;;;25.40;4.07;;;;;;;7.94;100.00;103301.75;5076997;28;20068;-79
2024/02/01 11:54:50;;;;;;;29.95;4.38;;;;;;;7.98;100.00;103300.72;5032107;28;20043;-80
2024/02/01 11:57:25;;;;;;;24.17;4.35;;;;;;;8.07;100.00;103313.59;5095656;28;20034;-79
2024/02/01 11:59:54;;;;;;;28.70;5.03;;;;;;;8.04;100.00;103313.72;5095468;28;20085;-80